Current Weather

Palm Springs Intl Airport

Palm Springs Intl Airport, California (KPSP)

Report from: Thursday, May 19, 2022 10:53 AM PDT
Current time: Thursday, May 19, 2022 11:50 AM PDT

Nearby weather
Weather history
Weather forecast

Temperature30.0°C (86.0°F)
Heat index28.8°C (83.8°F)
Dew point10.0°C (50.0°F)
Winds 4 kts (2.1 m/s, 4.6 mph) Vrb
Winds variableWinds variable
Visibility10 mi. (16.1 km)
Clouds Sky clear
Altimeter29.82 in.Hg (1010 mB)
Relative humidity29 %
Density altitude2,010 ft. (613 m)
Sea-level pressure100.9 kPa (1009 mB, 29.81 in.Hg)
Max temp last 6 hours30.6°C (87.1°F)
Min temp last 6 hours22.8°C (73.0°F)
Remarks System requires maintenance
Automated weather observing station with precipitation discriminator
Flight conditions Visual Meteorological Conditions
Raw dataKPSP 191753Z VRB04KT 10SM CLR 30/10 A2982 RMK AO2 SLP094 T03000100 10306 20228 $
An error has occurred. This application may no longer respond until reloaded. Reload 🗙